sensor_id;sensor_type;location;lat;lon;timestamp;pressure;altitude;pressure_sealevel;temperature
14023;BMP180;7086;48.116;11.580;2022-10-16T00:00:43;95264.00;;;17.90
14023;BMP180;7086;48.116;11.580;2022-10-16T00:04:16;95376.00;;;17.80
14023;BMP180;7086;48.116;11.580;2022-10-16T00:06:54;95348.00;;;17.90
14023;BMP180;7086;48.116;11.580;2022-10-16T00:10:12;95362.00;;;17.50
14023;BMP180;7086;48.116;11.580;2022-10-16T00:16:48;95368.00;;;17.80
14023;BMP180;7086;48.116;11.580;2022-10-16T00:20:12;95368.00;;;17.80
14023;BMP180;7086;48.116;11.580;2022-10-16T00:23:11;95317.00;;;17.60
14023;BMP180;7086;48.116;11.580;2022-10-16T00:25:53;95294.00;;;17.70
14023;BMP180;7086;48.116;11.580;2022-10-16T00:28:26;95368.00;;;17.70
14023;BMP180;7086;48.116;11.580;2022-10-16T00:31:38;95316.00;;;17.70
14023;BMP180;7086;48.116;11.580;2022-10-16T00:34:30;95382.00;;;17.40
14023;BMP180;7086;48.116;11.580;2022-10-16T00:36:58;95357.00;;;17.60
14023;BMP180;7086;48.116;11.580;2022-10-16T00:39:28;95366.00;;;17.60
14023;BMP180;7086;48.116;11.580;2022-10-16T00:42:23;95353.00;;;17.40
14023;BMP180;7086;48.116;11.580;2022-10-16T00:45:25;95363.00;;;17.50
14023;BMP180;7086;48.116;11.580;2022-10-16T00:48:13;95377.00;;;17.10
14023;BMP180;7086;48.116;11.580;2022-10-16T00:50:51;95236.00;;;17.20
14023;BMP180;7086;48.116;11.580;2022-10-16T00:53:20;95362.00;;;17.40
14023;BMP180;7086;48.116;11.580;2022-10-16T00:55:54;95367.00;;;17.40
14023;BMP180;7086;48.116;11.580;2022-10-16T00:58:23;95378.00;;;17.00
14023;BMP180;7086;48.116;11.580;2022-10-16T01:00:53;95357.00;;;17.40
14023;BMP180;7086;48.116;11.580;2022-10-16T01:03:31;95384.00;;;17.40
14023;BMP180;7086;48.116;11.580;2022-10-16T01:06:23;95237.00;;;17.40
14023;BMP180;7086;48.116;11.580;2022-10-16T01:09:11;95259.00;;;17.40
14023;BMP180;7086;48.116;11.580;2022-10-16T01:11:53;95325.00;;;17.40
14023;BMP180;7086;48.116;11.580;2022-10-16T01:14:34;95324.00;;;17.20
14023;BMP180;7086;48.116;11.580;2022-10-16T01:17:30;95362.00;;;17.20
14023;BMP180;7086;48.116;11.580;2022-10-16T01:21:19;95365.00;;;17.40
14023;BMP180;7086;48.116;11.580;2022-10-16T01:24:37;95380.00;;;17.40
14023;BMP180;7086;48.116;11.580;2022-10-16T01:27:59;95406.00;;;17.40
14023;BMP180;7086;48.116;11.580;2022-10-16T01:31:00;95389.00;;;17.40
14023;BMP180;7086;48.116;11.580;2022-10-16T01:34:18;95389.00;;;17.30
14023;BMP180;7086;48.116;11.580;2022-10-16T01:37:14;95368.00;;;17.20
14023;BMP180;7086;48.116;11.580;2022-10-16T01:39:48;95341.00;;;17.30
14023;BMP180;7086;48.116;11.580;2022-10-16T01:42:34;95332.00;;;17.40
14023;BMP180;7086;48.116;11.580;2022-10-16T01:45:19;95370.00;;;17.30
14023;BMP180;7086;48.116;11.580;2022-10-16T01:48:06;95313.00;;;17.30
14023;BMP180;7086;48.116;11.580;2022-10-16T01:50:44;95359.00;;;17.40
14023;BMP180;7086;48.116;11.580;2022-10-16T01:53:55;95326.00;;;17.40
14023;BMP180;7086;48.116;11.580;2022-10-16T01:56:42;95327.00;;;17.10
14023;BMP180;7086;48.116;11.580;2022-10-16T01:59:26;95384.00;;;17.40
14023;BMP180;7086;48.116;11.580;2022-10-16T02:02:17;95304.00;;;17.30
14023;BMP180;7086;48.116;11.580;2022-10-16T02:05:02;95361.00;;;17.40
14023;BMP180;7086;48.116;11.580;2022-10-16T02:07:35;95353.00;;;17.40
14023;BMP180;7086;48.116;11.580;2022-10-16T02:10:08;95374.00;;;17.30
14023;BMP180;7086;48.116;11.580;2022-10-16T02:13:06;95370.00;;;17.20
14023;BMP180;7086;48.116;11.580;2022-10-16T02:16:11;95233.00;;;17.30
14023;BMP180;7086;48.116;11.580;2022-10-16T02:19:07;95346.00;;;17.20
14023;BMP180;7086;48.116;11.580;2022-10-16T02:21:54;95358.00;;;17.30
14023;BMP180;7086;48.116;11.580;2022-10-16T02:28:53;95385.00;;;17.30
14023;BMP180;7086;48.116;11.580;2022-10-16T02:33:03;95367.00;;;17.00
14023;BMP180;7086;48.116;11.580;2022-10-16T02:35:40;95392.00;;;17.20
14023;BMP180;7086;48.116;11.580;2022-10-16T02:38:50;95390.00;;;17.20
14023;BMP180;7086;48.116;11.580;2022-10-16T02:41:55;95296.00;;;17.20
14023;BMP180;7086;48.116;11.580;2022-10-16T02:45:27;95244.00;;;17.20
14023;BMP180;7086;48.116;11.580;2022-10-16T02:48:44;95309.00;;;17.10
14023;BMP180;7086;48.116;11.580;2022-10-16T02:51:58;95395.00;;;17.20
14023;BMP180;7086;48.116;11.580;2022-10-16T02:54:58;95319.00;;;17.20
14023;BMP180;7086;48.116;11.580;2022-10-16T02:58:17;95315.00;;;17.10
14023;BMP180;7086;48.116;11.580;2022-10-16T03:04:25;95253.00;;;17.10
14023;BMP180;7086;48.116;11.580;2022-10-16T03:08:37;95407.00;;;17.10
14023;BMP180;7086;48.116;11.580;2022-10-16T03:10:56;95292.00;;;16.80
14023;BMP180;7086;48.116;11.580;2022-10-16T03:13:36;95353.00;;;17.10
14023;BMP180;7086;48.116;11.580;2022-10-16T03:16:27;95313.00;;;17.10
14023;BMP180;7086;48.116;11.580;2022-10-16T03:19:25;95330.00;;;16.90
14023;BMP180;7086;48.116;11.580;2022-10-16T03:22:09;95393.00;;;17.00
14023;BMP180;7086;48.116;11.580;2022-10-16T03:25:09;95394.00;;;16.90
14023;BMP180;7086;48.116;11.580;2022-10-16T03:27:46;95383.00;;;17.00
14023;BMP180;7086;48.116;11.580;2022-10-16T03:31:01;95317.00;;;17.00
14023;BMP180;7086;48.116;11.580;2022-10-16T03:37:51;95393.00;;;16.50
14023;BMP180;7086;48.116;11.580;2022-10-16T03:44:29;95330.00;;;16.90
14023;BMP180;7086;48.116;11.580;2022-10-16T03:47:28;95405.00;;;16.80
14023;BMP180;7086;48.116;11.580;2022-10-16T03:50:37;95314.00;;;17.00
14023;BMP180;7086;48.116;11.580;2022-10-16T03:57:28;95442.00;;;17.00
14023;BMP180;7086;48.116;11.580;2022-10-16T04:00:58;95303.00;;;17.10
14023;BMP180;7086;48.116;11.580;2022-10-16T04:03:53;95376.00;;;17.10
14023;BMP180;7086;48.116;11.580;2022-10-16T04:07:42;95296.00;;;17.20
14023;BMP180;7086;48.116;11.580;2022-10-16T04:13:51;95326.00;;;17.20
14023;BMP180;7086;48.116;11.580;2022-10-16T04:17:28;95344.00;;;17.30
14023;BMP180;7086;48.116;11.580;2022-10-16T04:21:01;95294.00;;;17.30
14023;BMP180;7086;48.116;11.580;2022-10-16T04:24:00;95343.00;;;17.20
14023;BMP180;7086;48.116;11.580;2022-10-16T04:31:33;95432.00;;;17.40
14023;BMP180;7086;48.116;11.580;2022-10-16T04:34:25;95404.00;;;17.40
14023;BMP180;7086;48.116;11.580;2022-10-16T04:36:59;95397.00;;;17.40
14023;BMP180;7086;48.116;11.580;2022-10-16T04:39:30;95359.00;;;17.20
14023;BMP180;7086;48.116;11.580;2022-10-16T04:42:09;95392.00;;;17.50
14023;BMP180;7086;48.116;11.580;2022-10-16T04:44:41;95327.00;;;17.40
14023;BMP180;7086;48.116;11.580;2022-10-16T04:47:14;95415.00;;;17.10
14023;BMP180;7086;48.116;11.580;2022-10-16T04:49:42;95400.00;;;17.50
14023;BMP180;7086;48.116;11.580;2022-10-16T04:52:10;95411.00;;;17.50
14023;BMP180;7086;48.116;11.580;2022-10-16T04:54:45;95276.00;;;17.50
14023;BMP180;7086;48.116;11.580;2022-10-16T04:57:15;95325.00;;;17.50
14023;BMP180;7086;48.116;11.580;2022-10-16T04:59:45;95381.00;;;17.50
14023;BMP180;7086;48.116;11.580;2022-10-16T05:02:19;95411.00;;;17.20
14023;BMP180;7086;48.116;11.580;2022-10-16T05:04:52;95375.00;;;17.50
14023;BMP180;7086;48.116;11.580;2022-10-16T05:07:30;95332.00;;;17.10
14023;BMP180;7086;48.116;11.580;2022-10-16T05:10:01;95398.00;;;17.40
14023;BMP180;7086;48.116;11.580;2022-10-16T05:12:32;95404.00;;;17.50
14023;BMP180;7086;48.116;11.580;2022-10-16T05:15:18;95369.00;;;17.40
14023;BMP180;7086;48.116;11.580;2022-10-16T05:17:56;95422.00;;;17.40
14023;BMP180;7086;48.116;11.580;2022-10-16T05:20:28;95327.00;;;17.40
14023;BMP180;7086;48.116;11.580;2022-10-16T05:22:59;95385.00;;;17.50
14023;BMP180;7086;48.116;11.580;2022-10-16T05:25:33;95334.00;;;17.10
14023;BMP180;7086;48.116;11.580;2022-10-16T05:28:13;95373.00;;;17.50
14023;BMP180;7086;48.116;11.580;2022-10-16T05:30:50;95337.00;;;17.50
14023;BMP180;7086;48.116;11.580;2022-10-16T05:33:32;95401.00;;;17.40
14023;BMP180;7086;48.116;11.580;2022-10-16T05:36:04;95426.00;;;17.50
14023;BMP180;7086;48.116;11.580;2022-10-16T05:38:35;95404.00;;;17.60
14023;BMP180;7086;48.116;11.580;2022-10-16T05:41:05;95449.00;;;17.60
14023;BMP180;7086;48.116;11.580;2022-10-16T05:43:38;95421.00;;;17.60
14023;BMP180;7086;48.116;11.580;2022-10-16T05:46:12;95395.00;;;17.60
14023;BMP180;7086;48.116;11.580;2022-10-16T05:51:41;95422.00;;;17.60
14023;BMP180;7086;48.116;11.580;2022-10-16T05:54:13;95426.00;;;17.60
14023;BMP180;7086;48.116;11.580;2022-10-16T05:56:48;95373.00;;;17.70
14023;BMP180;7086;48.116;11.580;2022-10-16T05:59:19;95431.00;;;17.70
14023;BMP180;7086;48.116;11.580;2022-10-16T06:01:54;95432.00;;;17.70
14023;BMP180;7086;48.116;11.580;2022-10-16T06:04:23;95471.00;;;17.50
14023;BMP180;7086;48.116;11.580;2022-10-16T06:14:17;95437.00;;;17.80
14023;BMP180;7086;48.116;11.580;2022-10-16T06:16:53;95463.00;;;17.40
14023;BMP180;7086;48.116;11.580;2022-10-16T06:19:29;95441.00;;;17.90
14023;BMP180;7086;48.116;11.580;2022-10-16T06:22:09;95433.00;;;17.80
14023;BMP180;7086;48.116;11.580;2022-10-16T06:25:26;95346.00;;;17.90
14023;BMP180;7086;48.116;11.580;2022-10-16T06:31:39;95386.00;;;17.90
14023;BMP180;7086;48.116;11.580;2022-10-16T06:42:30;95454.00;;;18.00
14023;BMP180;7086;48.116;11.580;2022-10-16T06:45:34;95480.00;;;18.20
14023;BMP180;7086;48.116;11.580;2022-10-16T06:48:39;95404.00;;;18.30
14023;BMP180;7086;48.116;11.580;2022-10-16T06:51:22;95486.00;;;18.30
14023;BMP180;7086;48.116;11.580;2022-10-16T06:57:35;95475.00;;;18.30
14023;BMP180;7086;48.116;11.580;2022-10-16T07:00:58;95463.00;;;18.50
14023;BMP180;7086;48.116;11.580;2022-10-16T07:04:13;95391.00;;;18.60
14023;BMP180;7086;48.116;11.580;2022-10-16T07:07:32;95442.00;;;18.60
14023;BMP180;7086;48.116;11.580;2022-10-16T07:13:59;95504.00;;;18.80
14023;BMP180;7086;48.116;11.580;2022-10-16T07:16:54;95532.00;;;19.00
14023;BMP180;7086;48.116;11.580;2022-10-16T07:20:14;95448.00;;;19.10
14023;BMP180;7086;48.116;11.580;2022-10-16T07:23:36;95518.00;;;19.20
14023;BMP180;7086;48.116;11.580;2022-10-16T07:26:38;95454.00;;;19.30
14023;BMP180;7086;48.116;11.580;2022-10-16T07:29:25;95533.00;;;19.40
14023;BMP180;7086;48.116;11.580;2022-10-16T07:36:46;95540.00;;;20.00
14023;BMP180;7086;48.116;11.580;2022-10-16T07:44:19;95542.00;;;21.00
14023;BMP180;7086;48.116;11.580;2022-10-16T07:51:30;95511.00;;;23.30
14023;BMP180;7086;48.116;11.580;2022-10-16T07:58:48;95552.00;;;25.90
14023;BMP180;7086;48.116;11.580;2022-10-16T08:01:53;95496.00;;;26.80
14023;BMP180;7086;48.116;11.580;2022-10-16T08:04:52;95557.00;;;27.30
14023;BMP180;7086;48.116;11.580;2022-10-16T08:11:22;95585.00;;;28.30
14023;BMP180;7086;48.116;11.580;2022-10-16T08:18:14;95521.00;;;30.10
14023;BMP180;7086;48.116;11.580;2022-10-16T08:21:31;95592.00;;;31.00
14023;BMP180;7086;48.116;11.580;2022-10-16T08:24:48;95482.00;;;31.60
14023;BMP180;7086;48.116;11.580;2022-10-16T08:28:13;95609.00;;;32.40
14023;BMP180;7086;48.116;11.580;2022-10-16T08:31:16;95589.00;;;32.70
14023;BMP180;7086;48.116;11.580;2022-10-16T08:33:55;95533.00;;;33.50
14023;BMP180;7086;48.116;11.580;2022-10-16T08:36:53;95589.00;;;33.90
14023;BMP180;7086;48.116;11.580;2022-10-16T08:39:38;95595.00;;;34.20
14023;BMP180;7086;48.116;11.580;2022-10-16T08:42:43;95602.00;;;34.60
14023;BMP180;7086;48.116;11.580;2022-10-16T08:45:36;95582.00;;;34.90
14023;BMP180;7086;48.116;11.580;2022-10-16T08:48:35;95608.00;;;35.30
14023;BMP180;7086;48.116;11.580;2022-10-16T08:51:20;95594.00;;;35.80
14023;BMP180;7086;48.116;11.580;2022-10-16T08:54:01;95547.00;;;36.10
14023;BMP180;7086;48.116;11.580;2022-10-16T08:56:54;95604.00;;;36.40
14023;BMP180;7086;48.116;11.580;2022-10-16T08:59:22;95614.00;;;36.50
14023;BMP180;7086;48.116;11.580;2022-10-16T09:01:51;95601.00;;;36.60
14023;BMP180;7086;48.116;11.580;2022-10-16T09:04:58;95633.00;;;36.70
14023;BMP180;7086;48.116;11.580;2022-10-16T09:07:36;95605.00;;;36.80
14023;BMP180;7086;48.116;11.580;2022-10-16T09:10:27;95623.00;;;37.00
14023;BMP180;7086;48.116;11.580;2022-10-16T09:13:12;95637.00;;;37.30
14023;BMP180;7086;48.116;11.580;2022-10-16T09:15:52;95626.00;;;37.60
14023;BMP180;7086;48.116;11.580;2022-10-16T09:18:33;95612.00;;;37.80
14023;BMP180;7086;48.116;11.580;2022-10-16T09:21:13;95630.00;;;37.90
14023;BMP180;7086;48.116;11.580;2022-10-16T09:23:44;95629.00;;;38.10
14023;BMP180;7086;48.116;11.580;2022-10-16T09:26:15;95636.00;;;38.20
14023;BMP180;7086;48.116;11.580;2022-10-16T09:28:51;95606.00;;;38.30
14023;BMP180;7086;48.116;11.580;2022-10-16T09:31:28;95628.00;;;38.40
14023;BMP180;7086;48.116;11.580;2022-10-16T09:34:24;95636.00;;;38.40
14023;BMP180;7086;48.116;11.580;2022-10-16T09:37:10;95652.00;;;38.40
14023;BMP180;7086;48.116;11.580;2022-10-16T09:39:51;95641.00;;;38.50
14023;BMP180;7086;48.116;11.580;2022-10-16T09:42:32;95616.00;;;38.60
14023;BMP180;7086;48.116;11.580;2022-10-16T09:45:18;95646.00;;;38.70
14023;BMP180;7086;48.116;11.580;2022-10-16T09:48:00;95656.00;;;38.80
14023;BMP180;7086;48.116;11.580;2022-10-16T09:50:40;95628.00;;;39.00
14023;BMP180;7086;48.116;11.580;2022-10-16T09:53:15;95664.00;;;38.90
14023;BMP180;7086;48.116;11.580;2022-10-16T09:55:53;95662.00;;;38.90
14023;BMP180;7086;48.116;11.580;2022-10-16T09:58:31;95620.00;;;38.70
14023;BMP180;7086;48.116;11.580;2022-10-16T10:01:29;95615.00;;;38.40
14023;BMP180;7086;48.116;11.580;2022-10-16T10:04:36;95676.00;;;38.50
14023;BMP180;7086;48.116;11.580;2022-10-16T10:07:43;95670.00;;;38.40
14023;BMP180;7086;48.116;11.580;2022-10-16T10:10:32;95680.00;;;38.50
14023;BMP180;7086;48.116;11.580;2022-10-16T10:13:37;95609.00;;;38.60
14023;BMP180;7086;48.116;11.580;2022-10-16T10:16:06;95665.00;;;38.60
14023;BMP180;7086;48.116;11.580;2022-10-16T10:18:34;95661.00;;;38.60
14023;BMP180;7086;48.116;11.580;2022-10-16T10:21:03;95653.00;;;38.60
14023;BMP180;7086;48.116;11.580;2022-10-16T10:23:32;95652.00;;;38.50
14023;BMP180;7086;48.116;11.580;2022-10-16T10:26:07;95644.00;;;38.40
14023;BMP180;7086;48.116;11.580;2022-10-16T10:29:01;95654.00;;;38.20
14023;BMP180;7086;48.116;11.580;2022-10-16T10:31:44;95652.00;;;38.10
14023;BMP180;7086;48.116;11.580;2022-10-16T10:34:35;95659.00;;;38.00
14023;BMP180;7086;48.116;11.580;2022-10-16T10:37:30;95654.00;;;38.00
14023;BMP180;7086;48.116;11.580;2022-10-16T10:40:15;95658.00;;;38.20
14023;BMP180;7086;48.116;11.580;2022-10-16T10:42:58;95637.00;;;38.20
14023;BMP180;7086;48.116;11.580;2022-10-16T10:45:42;95630.00;;;38.50
14023;BMP180;7086;48.116;11.580;2022-10-16T10:48:26;95661.00;;;38.60
14023;BMP180;7086;48.116;11.580;2022-10-16T10:51:05;95662.00;;;38.70
14023;BMP180;7086;48.116;11.580;2022-10-16T10:53:44;95656.00;;;38.70
14023;BMP180;7086;48.116;11.580;2022-10-16T10:56:41;95680.00;;;38.80
14023;BMP180;7086;48.116;11.580;2022-10-16T10:59:32;95652.00;;;38.80
14023;BMP180;7086;48.116;11.580;2022-10-16T11:02:10;95657.00;;;38.90
14023;BMP180;7086;48.116;11.580;2022-10-16T11:05:08;95650.00;;;39.00
14023;BMP180;7086;48.116;11.580;2022-10-16T11:07:47;95658.00;;;39.10
14023;BMP180;7086;48.116;11.580;2022-10-16T11:10:21;95659.00;;;39.30
14023;BMP180;7086;48.116;11.580;2022-10-16T11:12:55;95642.00;;;39.40
14023;BMP180;7086;48.116;11.580;2022-10-16T11:15:31;95638.00;;;39.30
14023;BMP180;7086;48.116;11.580;2022-10-16T11:18:06;95645.00;;;39.20
14023;BMP180;7086;48.116;11.580;2022-10-16T11:20:42;95664.00;;;39.00
14023;BMP180;7086;48.116;11.580;2022-10-16T11:23:40;95658.00;;;38.80
14023;BMP180;7086;48.116;11.580;2022-10-16T11:26:58;95628.00;;;38.50
14023;BMP180;7086;48.116;11.580;2022-10-16T11:29:59;95658.00;;;38.40
14023;BMP180;7086;48.116;11.580;2022-10-16T11:32:55;95674.00;;;38.30
14023;BMP180;7086;48.116;11.580;2022-10-16T11:35:46;95607.00;;;38.40
14023;BMP180;7086;48.116;11.580;2022-10-16T11:38:32;95653.00;;;38.40
14023;BMP180;7086;48.116;11.580;2022-10-16T11:41:15;95655.00;;;38.40
14023;BMP180;7086;48.116;11.580;2022-10-16T11:44:13;95603.00;;;38.30
14023;BMP180;7086;48.116;11.580;2022-10-16T11:47:01;95669.00;;;37.90
14023;BMP180;7086;48.116;11.580;2022-10-16T11:49:37;95650.00;;;37.30
14023;BMP180;7086;48.116;11.580;2022-10-16T11:52:16;95587.00;;;36.50
14023;BMP180;7086;48.116;11.580;2022-10-16T11:54:51;95648.00;;;35.70
14023;BMP180;7086;48.116;11.580;2022-10-16T11:57:26;95646.00;;;35.00
14023;BMP180;7086;48.116;11.580;2022-10-16T12:00:03;95661.00;;;34.30
14023;BMP180;7086;48.116;11.580;2022-10-16T12:02:50;95652.00;;;33.60
14023;BMP180;7086;48.116;11.580;2022-10-16T12:05:35;95661.00;;;33.00
14023;BMP180;7086;48.116;11.580;2022-10-16T12:11:38;95621.00;;;32.10
14023;BMP180;7086;48.116;11.580;2022-10-16T12:14:35;95651.00;;;31.70
14023;BMP180;7086;48.116;11.580;2022-10-16T12:17:34;95666.00;;;31.30
14023;BMP180;7086;48.116;11.580;2022-10-16T12:20:35;95653.00;;;31.10
14023;BMP180;7086;48.116;11.580;2022-10-16T12:23:06;95647.00;;;30.70
14023;BMP180;7086;48.116;11.580;2022-10-16T12:25:38;95643.00;;;30.80
14023;BMP180;7086;48.116;11.580;2022-10-16T12:28:28;95616.00;;;30.60
14023;BMP180;7086;48.116;11.580;2022-10-16T12:30:59;95635.00;;;30.40
14023;BMP180;7086;48.116;11.580;2022-10-16T12:33:31;95628.00;;;30.30
14023;BMP180;7086;48.116;11.580;2022-10-16T12:36:03;95638.00;;;30.20
14023;BMP180;7086;48.116;11.580;2022-10-16T12:38:45;95663.00;;;30.10
14023;BMP180;7086;48.116;11.580;2022-10-16T12:41:27;95594.00;;;30.10
14023;BMP180;7086;48.116;11.580;2022-10-16T12:44:20;95651.00;;;30.00
14023;BMP180;7086;48.116;11.580;2022-10-16T12:46:49;95643.00;;;30.00
14023;BMP180;7086;48.116;11.580;2022-10-16T12:49:36;95631.00;;;29.90
14023;BMP180;7086;48.116;11.580;2022-10-16T12:52:29;95637.00;;;29.80
14023;BMP180;7086;48.116;11.580;2022-10-16T12:55:05;95642.00;;;29.70
14023;BMP180;7086;48.116;11.580;2022-10-16T12:57:45;95628.00;;;29.80
14023;BMP180;7086;48.116;11.580;2022-10-16T13:00:26;95634.00;;;29.70
14023;BMP180;7086;48.116;11.580;2022-10-16T13:03:33;95632.00;;;29.70
14023;BMP180;7086;48.116;11.580;2022-10-16T13:06:22;95633.00;;;29.70
14023;BMP180;7086;48.116;11.580;2022-10-16T13:09:18;95638.00;;;29.70
14023;BMP180;7086;48.116;11.580;2022-10-16T13:12:13;95629.00;;;29.60
14023;BMP180;7086;48.116;11.580;2022-10-16T13:15:18;95640.00;;;29.70
14023;BMP180;7086;48.116;11.580;2022-10-16T13:18:01;95633.00;;;29.60
14023;BMP180;7086;48.116;11.580;2022-10-16T13:20:37;95598.00;;;29.60
14023;BMP180;7086;48.116;11.580;2022-10-16T13:23:19;95636.00;;;29.60
14023;BMP180;7086;48.116;11.580;2022-10-16T13:26:09;95626.00;;;29.50
14023;BMP180;7086;48.116;11.580;2022-10-16T13:28:38;95641.00;;;29.60
14023;BMP180;7086;48.116;11.580;2022-10-16T13:31:17;95636.00;;;29.60
14023;BMP180;7086;48.116;11.580;2022-10-16T13:33:57;95656.00;;;29.50
14023;BMP180;7086;48.116;11.580;2022-10-16T13:36:28;95597.00;;;29.60
14023;BMP180;7086;48.116;11.580;2022-10-16T13:39:15;95642.00;;;29.50
14023;BMP180;7086;48.116;11.580;2022-10-16T13:41:44;95640.00;;;29.60
14023;BMP180;7086;48.116;11.580;2022-10-16T13:44:18;95593.00;;;29.50
14023;BMP180;7086;48.116;11.580;2022-10-16T13:47:03;95638.00;;;29.60
14023;BMP180;7086;48.116;11.580;2022-10-16T13:49:59;95655.00;;;29.60
14023;BMP180;7086;48.116;11.580;2022-10-16T13:53:12;95652.00;;;29.60
14023;BMP180;7086;48.116;11.580;2022-10-16T13:55:55;95643.00;;;29.60
14023;BMP180;7086;48.116;11.580;2022-10-16T13:58:27;95640.00;;;29.50
14023;BMP180;7086;48.116;11.580;2022-10-16T14:04:38;95670.00;;;29.40
14023;BMP180;7086;48.116;11.580;2022-10-16T14:07:26;95622.00;;;29.40
14023;BMP180;7086;48.116;11.580;2022-10-16T14:10:07;95644.00;;;29.50
14023;BMP180;7086;48.116;11.580;2022-10-16T14:13:13;95667.00;;;29.40
14023;BMP180;7086;48.116;11.580;2022-10-16T14:16:40;95618.00;;;29.40
14023;BMP180;7086;48.116;11.580;2022-10-16T14:19:25;95655.00;;;29.40
14023;BMP180;7086;48.116;11.580;2022-10-16T14:22:37;95555.00;;;29.40
14023;BMP180;7086;48.116;11.580;2022-10-16T14:25:33;95660.00;;;29.10
14023;BMP180;7086;48.116;11.580;2022-10-16T14:28:24;95587.00;;;29.40
14023;BMP180;7086;48.116;11.580;2022-10-16T14:31:29;95659.00;;;29.20
14023;BMP180;7086;48.116;11.580;2022-10-16T14:34:40;95660.00;;;29.20
14023;BMP180;7086;48.116;11.580;2022-10-16T14:37:50;95661.00;;;28.90
14023;BMP180;7086;48.116;11.580;2022-10-16T14:42:37;95655.00;;;29.10
14023;BMP180;7086;48.116;11.580;2022-10-16T14:43:31;95667.00;;;29.00
14023;BMP180;7086;48.116;11.580;2022-10-16T14:46:40;95660.00;;;28.90
14023;BMP180;7086;48.116;11.580;2022-10-16T14:49:30;95586.00;;;29.00
14023;BMP180;7086;48.116;11.580;2022-10-16T14:52:24;95647.00;;;28.80
14023;BMP180;7086;48.116;11.580;2022-10-16T14:55:18;95639.00;;;28.80
14023;BMP180;7086;48.116;11.580;2022-10-16T14:57:51;95655.00;;;28.80
14023;BMP180;7086;48.116;11.580;2022-10-16T15:00:46;95656.00;;;28.70
14023;BMP180;7086;48.116;11.580;2022-10-16T15:03:22;95636.00;;;28.60
14023;BMP180;7086;48.116;11.580;2022-10-16T15:06:13;95667.00;;;28.60
14023;BMP180;7086;48.116;11.580;2022-10-16T15:08:46;95659.00;;;28.50
14023;BMP180;7086;48.116;11.580;2022-10-16T15:11:21;95670.00;;;28.40
14023;BMP180;7086;48.116;11.580;2022-10-16T15:14:02;95660.00;;;28.30
14023;BMP180;7086;48.116;11.580;2022-10-16T15:16:33;95687.00;;;28.30
14023;BMP180;7086;48.116;11.580;2022-10-16T15:19:16;95604.00;;;28.00
14023;BMP180;7086;48.116;11.580;2022-10-16T15:21:48;95639.00;;;28.10
14023;BMP180;7086;48.116;11.580;2022-10-16T15:24:24;95608.00;;;28.10
14023;BMP180;7086;48.116;11.580;2022-10-16T15:26:59;95682.00;;;28.00
14023;BMP180;7086;48.116;11.580;2022-10-16T15:29:40;95674.00;;;27.90
14023;BMP180;7086;48.116;11.580;2022-10-16T15:32:18;95572.00;;;27.90
14023;BMP180;7086;48.116;11.580;2022-10-16T15:34:49;95676.00;;;27.80
14023;BMP180;7086;48.116;11.580;2022-10-16T15:40:52;95682.00;;;27.60
14023;BMP180;7086;48.116;11.580;2022-10-16T15:43:24;95700.00;;;27.60
14023;BMP180;7086;48.116;11.580;2022-10-16T15:46:23;95672.00;;;27.40
14023;BMP180;7086;48.116;11.580;2022-10-16T15:48:58;95687.00;;;27.40
14023;BMP180;7086;48.116;11.580;2022-10-16T15:51:28;95680.00;;;27.30
14023;BMP180;7086;48.116;11.580;2022-10-16T15:53:59;95687.00;;;27.20
14023;BMP180;7086;48.116;11.580;2022-10-16T15:56:28;95691.00;;;27.10
14023;BMP180;7086;48.116;11.580;2022-10-16T15:59:01;95691.00;;;27.00
14023;BMP180;7086;48.116;11.580;2022-10-16T16:01:33;95688.00;;;27.00
14023;BMP180;7086;48.116;11.580;2022-10-16T16:04:01;95686.00;;;26.90
14023;BMP180;7086;48.116;11.580;2022-10-16T16:06:30;95682.00;;;26.80
14023;BMP180;7086;48.116;11.580;2022-10-16T16:08:59;95693.00;;;26.70
14023;BMP180;7086;48.116;11.580;2022-10-16T16:11:26;95697.00;;;26.70
14023;BMP180;7086;48.116;11.580;2022-10-16T16:13:59;95694.00;;;26.60
14023;BMP180;7086;48.116;11.580;2022-10-16T16:16:27;95704.00;;;26.50
14023;BMP180;7086;48.116;11.580;2022-10-16T16:18:55;95702.00;;;26.40
14023;BMP180;7086;48.116;11.580;2022-10-16T16:21:23;95696.00;;;26.30
14023;BMP180;7086;48.116;11.580;2022-10-16T16:23:50;95700.00;;;26.30
14023;BMP180;7086;48.116;11.580;2022-10-16T16:26:24;95710.00;;;26.20
14023;BMP180;7086;48.116;11.580;2022-10-16T16:28:54;95707.00;;;26.10
14023;BMP180;7086;48.116;11.580;2022-10-16T16:31:28;95714.00;;;26.10
14023;BMP180;7086;48.116;11.580;2022-10-16T16:33:56;95715.00;;;26.00
14023;BMP180;7086;48.116;11.580;2022-10-16T16:36:25;95711.00;;;25.90
14023;BMP180;7086;48.116;11.580;2022-10-16T16:38:55;95716.00;;;25.80
14023;BMP180;7086;48.116;11.580;2022-10-16T16:41:27;95730.00;;;25.80
14023;BMP180;7086;48.116;11.580;2022-10-16T16:44:03;95723.00;;;25.70
14023;BMP180;7086;48.116;11.580;2022-10-16T16:46:34;95728.00;;;25.70
14023;BMP180;7086;48.116;11.580;2022-10-16T16:49:02;95727.00;;;25.60
14023;BMP180;7086;48.116;11.580;2022-10-16T16:51:30;95736.00;;;25.50
14023;BMP180;7086;48.116;11.580;2022-10-16T16:53:59;95744.00;;;25.50
14023;BMP180;7086;48.116;11.580;2022-10-16T16:56:27;95745.00;;;25.40
14023;BMP180;7086;48.116;11.580;2022-10-16T16:58:57;95748.00;;;25.30
14023;BMP180;7086;48.116;11.580;2022-10-16T17:01:29;95756.00;;;25.30
14023;BMP180;7086;48.116;11.580;2022-10-16T17:03:59;95759.00;;;25.20
14023;BMP180;7086;48.116;11.580;2022-10-16T17:06:31;95755.00;;;25.20
14023;BMP180;7086;48.116;11.580;2022-10-16T17:09:06;95758.00;;;25.10
14023;BMP180;7086;48.116;11.580;2022-10-16T17:11:34;95763.00;;;25.00
14023;BMP180;7086;48.116;11.580;2022-10-16T17:14:02;95770.00;;;25.00
14023;BMP180;7086;48.116;11.580;2022-10-16T17:16:33;95777.00;;;24.90
14023;BMP180;7086;48.116;11.580;2022-10-16T17:19:05;95770.00;;;24.90
14023;BMP180;7086;48.116;11.580;2022-10-16T17:21:34;95772.00;;;24.80
14023;BMP180;7086;48.116;11.580;2022-10-16T17:24:02;95766.00;;;24.70
14023;BMP180;7086;48.116;11.580;2022-10-16T17:26:30;95773.00;;;24.70
14023;BMP180;7086;48.116;11.580;2022-10-16T17:29:00;95777.00;;;24.60
14023;BMP180;7086;48.116;11.580;2022-10-16T17:31:31;95775.00;;;24.60
14023;BMP180;7086;48.116;11.580;2022-10-16T17:34:01;95780.00;;;24.50